Time;durP1;ratioP1;P1;durP2;ratioP2;P2;SDS_P1;SDS_P2;PMS_P1;PMS_P2;Temp;Humidity;BMP_temperature;BMP_pressure;BME280_temperature;BME280_humidity;BME280_pressure;Samples;Min_cycle;Max_cycle;Signal;HPM_P1;HPM_P2
2022/03/09 00:01:33;;;;;;;12.27;6.13;;;;;;;;;;5047900;28;20463;-65
2022/03/09 00:03:59;;;;;;;11.38;6.22;;;;;;;;;;5052693;28;20099;-65
2022/03/09 00:06:26;;;;;;;11.48;6.10;;;;;;;;;;5056664;28;20025;-65
2022/03/09 00:08:51;;;;;;;12.13;5.68;;;;;;;;;;5055196;28;20055;-65
2022/03/09 00:11:17;;;;;;;13.70;6.53;;;;;;;;;;5050314;28;20052;-64
2022/03/09 00:13:42;;;;;;;15.35;5.95;;;;;;;;;;5049465;28;20037;-65
2022/03/09 00:16:08;;;;;;;11.90;5.70;;;;;;;;;;5056766;28;20437;-65
2022/03/09 00:18:33;;;;;;;11.77;5.75;;;;;;;;;;5051107;28;20045;-65
2022/03/09 00:20:58;;;;;;;11.70;6.05;;;;;;;;;;5053360;28;20041;-63
2022/03/09 00:23:24;;;;;;;11.45;5.85;;;;;;;;;;5054842;28;20056;-65
2022/03/09 00:25:49;;;;;;;16.63;6.57;;;;;;;;;;5054467;28;20406;-65
2022/03/09 00:28:15;;;;;;;13.00;5.85;;;;;;;;;;5053955;28;20081;-66
2022/03/09 00:30:41;;;;;;;13.00;6.43;;;;;;;;;;5055078;28;20422;-65
2022/03/09 00:33:06;;;;;;;11.70;6.55;;;;;;;;;;5051353;28;20048;-64
2022/03/09 00:35:32;;;;;;;11.95;6.53;;;;;;;;;;5051116;28;20428;-65
2022/03/09 00:37:57;;;;;;;12.20;6.07;;;;;;;;;;5052501;28;20045;-65
2022/03/09 00:40:23;;;;;;;11.95;5.95;;;;;;;;;;5053346;28;20021;-65
2022/03/09 00:42:48;;;;;;;10.43;5.68;;;;;;;;;;5049750;28;20048;-65
2022/03/09 00:45:14;;;;;;;14.38;6.40;;;;;;;;;;5040400;28;20059;-65
2022/03/09 00:47:39;;;;;;;17.73;6.50;;;;;;;;;;5053848;28;20417;-65
2022/03/09 00:50:05;;;;;;;11.90;6.00;;;;;;;;;;5052343;28;20037;-65
2022/03/09 00:52:31;;;;;;;16.75;6.10;;;;;;;;;;5054251;28;20060;-65
2022/03/09 00:54:57;;;;;;;11.90;5.88;;;;;;;;;;5052937;28;20033;-65
2022/03/09 00:57:22;;;;;;;12.25;5.88;;;;;;;;;;5052634;28;20045;-65
2022/03/09 00:59:48;;;;;;;12.98;6.00;;;;;;;;;;5052875;28;20037;-66
2022/03/09 01:02:13;;;;;;;13.85;6.40;;;;;;;;;;5056141;28;20124;-65
2022/03/09 01:04:39;;;;;;;13.57;5.90;;;;;;;;;;5055644;28;20037;-65
2022/03/09 01:07:05;;;;;;;11.57;6.18;;;;;;;;;;5052041;28;20025;-65
2022/03/09 01:09:30;;;;;;;12.57;6.50;;;;;;;;;;5068294;28;20464;-66
2022/03/09 01:11:57;;;;;;;15.35;6.32;;;;;;;;;;5054280;28;20059;-65
2022/03/09 01:14:22;;;;;;;12.45;6.25;;;;;;;;;;5051749;28;20470;-65
2022/03/09 01:16:48;;;;;;;11.93;5.78;;;;;;;;;;5053887;28;20036;-64
2022/03/09 01:19:13;;;;;;;11.23;5.97;;;;;;;;;;5051325;28;20080;-65
2022/03/09 01:21:39;;;;;;;12.85;5.78;;;;;;;;;;5053348;28;20029;-66
2022/03/09 01:24:04;;;;;;;13.35;6.45;;;;;;;;;;5051004;28;20536;-64
2022/03/09 01:26:30;;;;;;;12.88;5.57;;;;;;;;;;5053258;28;20382;-65
2022/03/09 01:28:55;;;;;;;12.85;6.45;;;;;;;;;;5051012;28;20143;-65
2022/03/09 01:31:21;;;;;;;13.25;6.28;;;;;;;;;;5051005;28;20040;-64
2022/03/09 01:33:46;;;;;;;12.20;6.07;;;;;;;;;;5055101;28;20032;-66
2022/03/09 01:36:12;;;;;;;12.00;5.97;;;;;;;;;;5051390;28;20042;-65
2022/03/09 01:38:37;;;;;;;10.90;5.97;;;;;;;;;;5053514;28;20082;-65
2022/03/09 01:41:03;;;;;;;12.18;5.80;;;;;;;;;;5053411;28;20041;-64
2022/03/09 01:43:28;;;;;;;13.13;6.03;;;;;;;;;;5050685;28;20020;-65
2022/03/09 01:45:54;;;;;;;12.18;6.28;;;;;;;;;;5052796;28;20045;-65
2022/03/09 01:48:19;;;;;;;11.90;5.85;;;;;;;;;;5052690;28;20065;-65
2022/03/09 01:50:46;;;;;;;11.98;6.05;;;;;;;;;;5053280;28;20047;-65
2022/03/09 01:53:11;;;;;;;14.55;6.65;;;;;;;;;;5050975;28;20037;-64
2022/03/09 01:55:38;;;;;;;11.98;5.57;;;;;;;;;;5053339;28;20029;-65
2022/03/09 01:58:03;;;;;;;12.60;6.63;;;;;;;;;;5051375;28;20028;-64
2022/03/09 02:00:28;;;;;;;13.82;6.45;;;;;;;;;;5053709;28;20086;-65
2022/03/09 02:02:54;;;;;;;13.27;6.35;;;;;;;;;;5048629;28;20111;-66
2022/03/09 02:05:20;;;;;;;12.48;6.03;;;;;;;;;;5040261;28;20041;-64
2022/03/09 02:10:29;;;;;;;13.55;6.32;;;;;;;;;;5051411;28;20043;-65
2022/03/09 02:12:55;;;;;;;15.80;6.93;;;;;;;;;;5052425;28;20037;-65
2022/03/09 02:15:21;;;;;;;15.07;6.95;;;;;;;;;;5051995;28;20059;-65
2022/03/09 02:17:46;;;;;;;14.57;6.47;;;;;;;;;;5050947;28;20111;-66
2022/03/09 02:20:12;;;;;;;23.73;7.20;;;;;;;;;;5053121;28;20067;-65
2022/03/09 02:22:42;;;;;;;14.35;6.82;;;;;;;;;;5053070;28;20047;-65
2022/03/09 02:25:13;;;;;;;17.30;7.15;;;;;;;;;;5050819;28;20470;-65
2022/03/09 02:27:39;;;;;;;14.07;6.60;;;;;;;;;;5051284;28;20037;-64
2022/03/09 02:30:07;;;;;;;13.45;6.72;;;;;;;;;;5039255;28;20036;-65
2022/03/09 02:32:33;;;;;;;16.63;6.80;;;;;;;;;;5050951;28;20033;-65
2022/03/09 02:34:58;;;;;;;15.90;6.97;;;;;;;;;;5053526;28;20413;-65
2022/03/09 02:37:24;;;;;;;13.30;6.78;;;;;;;;;;5051702;28;20132;-64
2022/03/09 02:39:49;;;;;;;14.15;6.97;;;;;;;;;;5051781;28;20363;-65
2022/03/09 02:42:14;;;;;;;15.38;7.35;;;;;;;;;;5049971;28;20474;-64
2022/03/09 02:44:40;;;;;;;17.98;7.40;;;;;;;;;;5054187;28;20044;-64
2022/03/09 02:47:06;;;;;;;16.10;7.93;;;;;;;;;;5051491;28;20025;-65
2022/03/09 02:49:32;;;;;;;13.20;6.93;;;;;;;;;;5050358;28;20625;-64
2022/03/09 02:51:58;;;;;;;15.45;7.40;;;;;;;;;;5038776;28;20029;-64
2022/03/09 02:54:23;;;;;;;14.38;6.63;;;;;;;;;;5050608;28;20036;-66
2022/03/09 02:56:49;;;;;;;18.05;6.80;;;;;;;;;;5050852;28;20033;-66
2022/03/09 02:59:14;;;;;;;14.68;6.47;;;;;;;;;;5048935;28;20389;-65
2022/03/09 03:01:41;;;;;;;13.88;6.60;;;;;;;;;;5050289;28;20029;-64
2022/03/09 03:04:06;;;;;;;14.05;6.43;;;;;;;;;;5050113;28;20033;-64
2022/03/09 03:06:32;;;;;;;12.13;6.18;;;;;;;;;;5054155;28;20450;-64
2022/03/09 03:08:57;;;;;;;11.85;6.15;;;;;;;;;;5051002;28;20115;-65
2022/03/09 03:11:23;;;;;;;13.05;6.55;;;;;;;;;;5050222;28;20367;-64
2022/03/09 03:13:49;;;;;;;11.68;6.13;;;;;;;;;;5048805;28;20397;-65
2022/03/09 03:16:15;;;;;;;12.30;6.38;;;;;;;;;;5046059;28;20039;-65
2022/03/09 03:18:40;;;;;;;14.85;6.38;;;;;;;;;;5051040;28;20052;-65
2022/03/09 03:21:07;;;;;;;12.75;6.28;;;;;;;;;;5051427;28;20029;-65
2022/03/09 03:23:34;;;;;;;13.55;6.30;;;;;;;;;;5050058;28;20486;-66
2022/03/09 03:26:02;;;;;;;15.60;6.20;;;;;;;;;;5052037;28;20104;-64
2022/03/09 03:28:28;;;;;;;13.20;6.75;;;;;;;;;;5050411;28;20032;-66
2022/03/09 03:30:53;;;;;;;15.20;6.20;;;;;;;;;;5050611;28;20146;-65
2022/03/09 03:33:19;;;;;;;12.25;6.10;;;;;;;;;;5050120;28;20047;-63
2022/03/09 03:35:46;;;;;;;13.30;6.38;;;;;;;;;;5049655;28;20482;-64
2022/03/09 03:38:12;;;;;;;12.65;6.53;;;;;;;;;;5050212;28;20053;-63
2022/03/09 03:40:38;;;;;;;13.73;6.75;;;;;;;;;;5048212;28;20083;-64
2022/03/09 03:43:04;;;;;;;15.85;6.38;;;;;;;;;;5049521;28;20132;-65
2022/03/09 03:45:30;;;;;;;12.43;6.07;;;;;;;;;;5049862;28;20052;-65
2022/03/09 03:47:55;;;;;;;17.42;6.72;;;;;;;;;;5049192;28;20029;-65
2022/03/09 03:50:21;;;;;;;13.25;6.70;;;;;;;;;;5051975;28;20039;-65
2022/03/09 03:52:46;;;;;;;13.20;5.80;;;;;;;;;;5050519;28;20037;-65
2022/03/09 03:55:12;;;;;;;13.23;6.22;;;;;;;;;;5049765;28;20387;-64
2022/03/09 03:57:38;;;;;;;13.85;6.93;;;;;;;;;;5050720;28;20036;-65
2022/03/09 04:00:04;;;;;;;13.57;6.13;;;;;;;;;;5049230;28;20375;-65
2022/03/09 04:02:30;;;;;;;14.75;6.15;;;;;;;;;;5048512;28;20045;-65
2022/03/09 04:04:55;;;;;;;13.32;6.50;;;;;;;;;;5049206;28;20040;-64
2022/03/09 04:07:20;;;;;;;13.82;6.22;;;;;;;;;;5051916;28;20029;-64
2022/03/09 04:09:46;;;;;;;14.93;6.35;;;;;;;;;;5050412;28;20041;-65
2022/03/09 04:12:12;;;;;;;13.07;6.35;;;;;;;;;;5049130;28;20039;-64
2022/03/09 04:14:37;;;;;;;15.55;6.70;;;;;;;;;;5049633;28;20029;-64
2022/03/09 04:17:03;;;;;;;15.13;6.40;;;;;;;;;;5046352;28;20088;-64
2022/03/09 04:19:28;;;;;;;14.20;6.40;;;;;;;;;;5044888;28;20052;-65
2022/03/09 04:21:54;;;;;;;14.93;6.65;;;;;;;;;;5051991;28;20060;-65
2022/03/09 04:24:19;;;;;;;14.50;6.75;;;;;;;;;;5048856;28;20032;-64
2022/03/09 04:26:45;;;;;;;14.20;6.93;;;;;;;;;;5055196;28;20060;-66
2022/03/09 04:29:10;;;;;;;19.55;7.38;;;;;;;;;;5049683;28;20442;-65
2022/03/09 04:31:36;;;;;;;14.43;7.10;;;;;;;;;;5048889;28;20104;-65
2022/03/09 04:34:02;;;;;;;15.70;6.88;;;;;;;;;;5047765;28;20094;-65
2022/03/09 04:36:28;;;;;;;13.55;6.93;;;;;;;;;;5050813;28;20037;-65
2022/03/09 04:38:53;;;;;;;13.80;6.93;;;;;;;;;;5051143;28;20048;-65
2022/03/09 04:41:19;;;;;;;13.95;6.80;;;;;;;;;;5053004;28;20083;-65
2022/03/09 04:43:44;;;;;;;14.93;6.78;;;;;;;;;;5056608;28;20098;-65
2022/03/09 04:46:10;;;;;;;16.08;6.75;;;;;;;;;;5053977;28;20163;-64
2022/03/09 04:48:35;;;;;;;13.32;6.60;;;;;;;;;;5052227;28;20232;-64
2022/03/09 04:51:02;;;;;;;12.70;6.43;;;;;;;;;;5052220;28;20028;-64
2022/03/09 04:53:28;;;;;;;13.57;6.38;;;;;;;;;;5055334;28;20043;-64
2022/03/09 04:55:55;;;;;;;12.75;6.15;;;;;;;;;;5054519;28;20040;-65
2022/03/09 04:58:20;;;;;;;12.85;5.93;;;;;;;;;;5051725;28;20036;-64
2022/03/09 05:00:49;;;;;;;15.43;6.50;;;;;;;;;;5074071;28;20028;-64
2022/03/09 05:03:14;;;;;;;12.48;6.25;;;;;;;;;;5066551;28;20043;-63
2022/03/09 05:05:40;;;;;;;12.00;6.20;;;;;;;;;;5053262;28;20025;-64
2022/03/09 05:08:05;;;;;;;14.55;6.10;;;;;;;;;;5054486;28;20028;-65
2022/03/09 05:10:31;;;;;;;11.57;6.28;;;;;;;;;;5052492;28;20033;-65
2022/03/09 05:12:56;;;;;;;13.65;6.15;;;;;;;;;;5052013;28;20037;-67
2022/03/09 05:15:22;;;;;;;13.13;5.78;;;;;;;;;;5052361;28;20046;-64
2022/03/09 05:17:47;;;;;;;12.27;6.28;;;;;;;;;;5052102;28;20036;-66
2022/03/09 05:20:15;;;;;;;13.18;6.03;;;;;;;;;;5055659;28;20037;-65
2022/03/09 05:22:41;;;;;;;14.38;6.30;;;;;;;;;;5053079;28;20419;-65
2022/03/09 05:25:07;;;;;;;11.70;5.60;;;;;;;;;;5068050;28;20079;-64
2022/03/09 05:27:32;;;;;;;14.68;7.43;;;;;;;;;;5051199;28;20041;-64
2022/03/09 05:29:58;;;;;;;14.45;6.20;;;;;;;;;;5051180;28;20039;-65
2022/03/09 05:32:23;;;;;;;14.70;6.05;;;;;;;;;;5052301;28;20083;-64
2022/03/09 05:34:50;;;;;;;18.05;6.45;;;;;;;;;;5053600;28;20478;-65
2022/03/09 05:37:17;;;;;;;12.30;6.18;;;;;;;;;;5052807;28;20033;-64
2022/03/09 05:39:42;;;;;;;13.75;6.43;;;;;;;;;;5054415;28;20463;-65
2022/03/09 05:42:08;;;;;;;12.77;6.82;;;;;;;;;;5054131;28;20029;-64
2022/03/09 05:44:33;;;;;;;16.13;6.95;;;;;;;;;;5050400;28;20028;-64
2022/03/09 05:46:58;;;;;;;14.50;6.88;;;;;;;;;;5052957;28;20104;-63
2022/03/09 05:49:24;;;;;;;13.80;6.70;;;;;;;;;;5059267;28;20027;-64
2022/03/09 05:51:52;;;;;;;12.23;6.35;;;;;;;;;;5056594;28;20366;-63
2022/03/09 05:54:18;;;;;;;13.10;6.75;;;;;;;;;;5052841;28;20459;-63
2022/03/09 05:56:43;;;;;;;14.15;6.90;;;;;;;;;;5061232;28;20116;-63
2022/03/09 05:59:09;;;;;;;14.98;6.47;;;;;;;;;;5064526;28;20061;-63
2022/03/09 06:01:34;;;;;;;13.82;6.72;;;;;;;;;;5051343;28;20043;-63
2022/03/09 06:04:02;;;;;;;12.57;6.20;;;;;;;;;;5071103;28;20032;-65
2022/03/09 06:06:28;;;;;;;17.00;6.38;;;;;;;;;;5060239;28;20051;-64
2022/03/09 06:08:53;;;;;;;13.77;6.97;;;;;;;;;;5050866;28;20041;-72
2022/03/09 06:11:18;;;;;;;13.82;6.95;;;;;;;;;;5060128;28;20075;-68
2022/03/09 06:13:44;;;;;;;14.20;6.20;;;;;;;;;;5052438;28;20051;-69
2022/03/09 06:16:09;;;;;;;13.13;6.32;;;;;;;;;;5073098;28;20021;-70
2022/03/09 06:18:35;;;;;;;17.67;6.55;;;;;;;;;;5071751;28;20476;-69
2022/03/09 06:21:00;;;;;;;12.48;6.13;;;;;;;;;;5053484;28;20032;-69
2022/03/09 06:23:25;;;;;;;13.20;5.88;;;;;;;;;;5052545;28;20021;-75
2022/03/09 06:25:51;;;;;;;18.25;5.55;;;;;;;;;;5050840;28;20055;-76
2022/03/09 06:28:16;;;;;;;13.48;6.20;;;;;;;;;;5052533;28;20082;-74
2022/03/09 06:30:41;;;;;;;13.90;6.18;;;;;;;;;;5051310;28;20414;-71
2022/03/09 06:33:07;;;;;;;13.15;6.10;;;;;;;;;;5051138;28;20029;-77
2022/03/09 06:35:32;;;;;;;14.57;6.32;;;;;;;;;;5051086;28;20401;-74
2022/03/09 06:37:58;;;;;;;14.45;6.55;;;;;;;;;;5052217;28;20033;-73
2022/03/09 06:40:25;;;;;;;15.35;6.63;;;;;;;;;;5050777;28;20037;-73
2022/03/09 06:42:51;;;;;;;13.55;6.40;;;;;;;;;;5051945;28;20071;-73
2022/03/09 06:45:16;;;;;;;14.30;6.70;;;;;;;;;;5052073;28;20029;-73
2022/03/09 06:47:42;;;;;;;13.88;6.90;;;;;;;;;;5051450;28;20849;-73
2022/03/09 06:50:09;;;;;;;13.80;6.80;;;;;;;;;;5051973;28;20534;-73
2022/03/09 06:52:35;;;;;;;13.40;6.57;;;;;;;;;;5050816;28;20483;-75
2022/03/09 06:55:03;;;;;;;12.25;6.05;;;;;;;;;;5051422;28;20124;-75
2022/03/09 06:57:32;;;;;;;12.82;6.28;;;;;;;;;;5051336;28;20045;-75
2022/03/09 06:59:58;;;;;;;11.77;6.18;;;;;;;;;;5051935;28;20043;-73
2022/03/09 07:02:23;;;;;;;15.05;6.68;;;;;;;;;;5048929;28;20036;-70
2022/03/09 07:04:48;;;;;;;18.75;7.43;;;;;;;;;;5051297;28;20044;-74
2022/03/09 07:07:14;;;;;;;14.35;6.57;;;;;;;;;;5051809;28;20107;-76
2022/03/09 07:09:39;;;;;;;14.13;6.43;;;;;;;;;;5050811;28;20033;-75
2022/03/09 07:12:05;;;;;;;12.73;6.25;;;;;;;;;;5051357;28;20539;-74
2022/03/09 07:14:30;;;;;;;12.40;6.72;;;;;;;;;;5050843;28;20054;-76
2022/03/09 07:16:56;;;;;;;13.55;6.18;;;;;;;;;;5051770;28;20033;-76
2022/03/09 07:19:22;;;;;;;10.82;5.93;;;;;;;;;;5049748;28;20375;-67
2022/03/09 07:21:49;;;;;;;12.93;6.68;;;;;;;;;;5049780;28;20045;-74
2022/03/09 07:24:14;;;;;;;12.20;6.00;;;;;;;;;;5051624;28;20041;-72
2022/03/09 07:26:41;;;;;;;11.57;6.22;;;;;;;;;;5056224;28;20892;-72
2022/03/09 07:29:08;;;;;;;13.73;6.40;;;;;;;;;;5069951;28;20466;-74
2022/03/09 07:31:34;;;;;;;14.80;6.57;;;;;;;;;;5069967;28;20028;-73
2022/03/09 07:33:59;;;;;;;11.23;6.15;;;;;;;;;;5060052;28;20192;-72
2022/03/09 07:36:25;;;;;;;13.75;6.65;;;;;;;;;;5044419;28;20033;-69
2022/03/09 07:38:50;;;;;;;14.02;6.78;;;;;;;;;;5031653;28;20052;-75
2022/03/09 07:41:16;;;;;;;12.05;6.45;;;;;;;;;;5047262;28;20047;-73
2022/03/09 07:43:41;;;;;;;12.55;6.97;;;;;;;;;;5050181;28;20039;-74
2022/03/09 07:46:09;;;;;;;11.85;6.53;;;;;;;;;;5051071;28;20044;-73
2022/03/09 07:48:34;;;;;;;12.27;6.68;;;;;;;;;;5050262;28;20040;-73
2022/03/09 07:51:00;;;;;;;12.85;6.78;;;;;;;;;;5051220;28;20036;-72
2022/03/09 07:53:25;;;;;;;15.65;6.80;;;;;;;;;;5050084;28;20083;-68
2022/03/09 07:55:51;;;;;;;15.73;6.72;;;;;;;;;;5049338;28;20029;-73
2022/03/09 07:58:16;;;;;;;12.88;6.68;;;;;;;;;;5051020;28;20033;-73
2022/03/09 08:00:41;;;;;;;12.40;7.10;;;;;;;;;;5049882;28;20048;-76
2022/03/09 08:03:07;;;;;;;12.68;6.47;;;;;;;;;;5050067;28;20351;-72
2022/03/09 08:05:32;;;;;;;16.60;6.68;;;;;;;;;;5049284;28;20389;-75
2022/03/09 08:07:58;;;;;;;18.05;6.95;;;;;;;;;;5051538;28;20033;-76
2022/03/09 08:10:23;;;;;;;17.85;7.93;;;;;;;;;;5048684;28;20090;-73
2022/03/09 08:12:49;;;;;;;16.85;7.43;;;;;;;;;;5051157;28;20048;-75
2022/03/09 08:15:14;;;;;;;15.85;7.18;;;;;;;;;;5054613;28;20033;-74
2022/03/09 08:17:40;;;;;;;21.75;7.65;;;;;;;;;;5054002;28;20041;-75
2022/03/09 08:20:06;;;;;;;17.67;7.38;;;;;;;;;;5053778;28;20045;-74
2022/03/09 08:22:32;;;;;;;18.10;7.65;;;;;;;;;;5053773;28;20035;-76
2022/03/09 08:24:57;;;;;;;14.07;7.57;;;;;;;;;;5054688;28;20120;-74
2022/03/09 08:27:23;;;;;;;17.55;7.10;;;;;;;;;;5054206;28;20071;-71
2022/03/09 08:29:50;;;;;;;14.98;7.32;;;;;;;;;;5052949;28;20029;-74
2022/03/09 08:32:18;;;;;;;14.25;7.13;;;;;;;;;;5053412;28;20028;-75
2022/03/09 08:34:43;;;;;;;19.80;7.28;;;;;;;;;;5054072;28;20055;-75
2022/03/09 08:37:09;;;;;;;13.88;7.40;;;;;;;;;;5054660;28;20036;-74
2022/03/09 08:39:34;;;;;;;14.65;7.65;;;;;;;;;;5053296;28;20477;-74
2022/03/09 08:41:59;;;;;;;13.52;7.15;;;;;;;;;;5053526;28;20108;-73
2022/03/09 08:44:25;;;;;;;15.30;6.97;;;;;;;;;;5053899;28;20454;-69
2022/03/09 08:46:53;;;;;;;15.45;7.13;;;;;;;;;;5054243;28;20025;-74
2022/03/09 08:49:18;;;;;;;13.68;6.65;;;;;;;;;;5054219;28;20493;-74
2022/03/09 08:51:44;;;;;;;14.70;6.95;;;;;;;;;;5053356;28;20032;-75
2022/03/09 08:54:09;;;;;;;15.98;6.57;;;;;;;;;;5053834;28;20400;-75
2022/03/09 08:56:35;;;;;;;13.77;6.78;;;;;;;;;;5052800;28;20048;-77
2022/03/09 08:59:00;;;;;;;14.40;6.78;;;;;;;;;;5054181;28;20488;-75
2022/03/09 09:01:26;;;;;;;13.27;6.63;;;;;;;;;;5053694;28;20405;-71
2022/03/09 09:03:51;;;;;;;13.15;6.25;;;;;;;;;;5053467;28;20028;-72
2022/03/09 09:06:16;;;;;;;13.43;6.55;;;;;;;;;;5052633;28;20040;-72
2022/03/09 09:08:42;;;;;;;13.25;6.38;;;;;;;;;;5053414;28;20036;-73
2022/03/09 09:11:07;;;;;;;14.00;6.60;;;;;;;;;;5053326;28;20042;-72
2022/03/09 09:13:33;;;;;;;14.88;6.40;;;;;;;;;;5053130;28;20029;-73
2022/03/09 09:15:58;;;;;;;17.20;7.05;;;;;;;;;;5053443;28;20159;-73
2022/03/09 09:18:24;;;;;;;18.17;7.15;;;;;;;;;;5053613;28;20110;-73
2022/03/09 09:20:50;;;;;;;12.45;6.38;;;;;;;;;;5051463;28;20041;-73
2022/03/09 09:23:16;;;;;;;12.05;6.30;;;;;;;;;;5053888;28;20037;-73
2022/03/09 09:25:42;;;;;;;13.80;6.78;;;;;;;;;;5051433;28;20033;-71
2022/03/09 09:28:07;;;;;;;13.73;6.30;;;;;;;;;;5053118;28;20143;-73
2022/03/09 09:30:33;;;;;;;17.65;6.88;;;;;;;;;;5052768;28;20424;-71
2022/03/09 09:32:59;;;;;;;12.82;7.10;;;;;;;;;;5053066;28;20036;-74
2022/03/09 09:35:25;;;;;;;13.38;6.70;;;;;;;;;;5053800;28;20107;-74
2022/03/09 09:37:50;;;;;;;13.63;6.63;;;;;;;;;;5052123;28;20116;-75
2022/03/09 09:40:16;;;;;;;11.63;6.50;;;;;;;;;;5053195;28;20021;-75
2022/03/09 09:42:43;;;;;;;14.15;6.53;;;;;;;;;;5051968;28;20106;-72
2022/03/09 09:45:09;;;;;;;12.73;6.07;;;;;;;;;;5051913;28;20036;-74
2022/03/09 09:47:34;;;;;;;10.48;5.68;;;;;;;;;;5052585;28;20521;-75
2022/03/09 09:50:02;;;;;;;14.32;6.22;;;;;;;;;;5053116;28;20041;-73
2022/03/09 09:52:30;;;;;;;9.75;5.35;;;;;;;;;;5052733;28;20024;-71
2022/03/09 09:54:57;;;;;;;9.75;5.55;;;;;;;;;;5053020;28;20106;-75
2022/03/09 09:57:23;;;;;;;11.32;5.72;;;;;;;;;;5052538;28;20420;-73
2022/03/09 09:59:50;;;;;;;11.57;5.97;;;;;;;;;;5051317;28;20059;-73
2022/03/09 10:02:15;;;;;;;12.02;6.05;;;;;;;;;;5032893;28;20458;-74
2022/03/09 10:04:41;;;;;;;9.70;5.10;;;;;;;;;;5036775;28;20108;-75
2022/03/09 10:07:07;;;;;;;9.25;5.18;;;;;;;;;;5053062;28;20355;-74
2022/03/09 10:09:38;;;;;;;11.15;6.10;;;;;;;;;;5052213;28;20471;-73
2022/03/09 10:12:06;;;;;;;11.27;5.70;;;;;;;;;;5051996;28;20037;-72
2022/03/09 10:14:40;;;;;;;10.63;5.68;;;;;;;;;;5051234;28;20137;-73
2022/03/09 10:17:08;;;;;;;11.43;5.63;;;;;;;;;;5052875;28;20033;-74
2022/03/09 10:19:38;;;;;;;9.95;5.85;;;;;;;;;;5051520;28;20051;-70
2022/03/09 10:22:27;;;;;;;11.05;5.55;;;;;;;;;;5051933;28;20041;-72
2022/03/09 10:24:55;;;;;;;12.82;5.97;;;;;;;;;;5051781;28;20029;-72
2022/03/09 10:27:45;;;;;;;14.77;6.10;;;;;;;;;;5052411;28;20040;-73
2022/03/09 10:30:12;;;;;;;11.68;5.97;;;;;;;;;;5052123;28;20033;-73
2022/03/09 10:32:56;;;;;;;13.70;6.20;;;;;;;;;;5051365;28;20109;-74
2022/03/09 10:35:31;;;;;;;11.13;6.07;;;;;;;;;;5052130;28;20037;-72
2022/03/09 10:38:05;;;;;;;10.38;6.40;;;;;;;;;;5050150;28;20116;-76
2022/03/09 10:40:32;;;;;;;12.20;6.30;;;;;;;;;;5051152;28;20037;-70
2022/03/09 10:43:16;;;;;;;15.00;6.43;;;;;;;;;;5050413;28;20474;-77
2022/03/09 10:46:18;;;;;;;13.55;6.00;;;;;;;;;;5051099;28;20106;-77
2022/03/09 10:48:49;;;;;;;12.85;6.93;;;;;;;;;;5051278;28;20044;-73
2022/03/09 10:51:38;;;;;;;10.40;6.35;;;;;;;;;;5055399;28;20032;-73
2022/03/09 10:54:08;;;;;;;12.52;6.35;;;;;;;;;;5047654;28;20041;-74
2022/03/09 10:56:34;;;;;;;13.88;6.30;;;;;;;;;;5051132;28;20124;-77
2022/03/09 10:59:16;;;;;;;13.52;5.80;;;;;;;;;;5051774;28;20498;-75
2022/03/09 11:01:43;;;;;;;12.50;6.32;;;;;;;;;;5054522;28;20034;-71
2022/03/09 11:04:15;;;;;;;10.13;5.75;;;;;;;;;;5051704;28;20083;-73
2022/03/09 11:06:46;;;;;;;12.43;6.28;;;;;;;;;;5058340;28;20043;-75
2022/03/09 11:09:13;;;;;;;11.73;6.05;;;;;;;;;;5056077;28;20368;-73
2022/03/09 11:11:39;;;;;;;12.18;5.93;;;;;;;;;;5049916;28;20051;-74
2022/03/09 11:14:05;;;;;;;10.70;6.30;;;;;;;;;;5051267;28;20029;-74
2022/03/09 11:16:31;;;;;;;13.35;6.40;;;;;;;;;;5051433;28;20033;-68
2022/03/09 11:18:57;;;;;;;10.60;6.05;;;;;;;;;;5049768;28;20047;-73
2022/03/09 11:21:23;;;;;;;12.27;6.05;;;;;;;;;;5051718;28;20032;-74
2022/03/09 11:23:50;;;;;;;12.77;5.97;;;;;;;;;;5050573;28;20120;-77
2022/03/09 11:26:24;;;;;;;10.85;6.22;;;;;;;;;;5051065;28;20048;-72
2022/03/09 11:29:05;;;;;;;10.52;6.00;;;;;;;;;;5050516;28;20466;-75
2022/03/09 11:31:52;;;;;;;9.93;6.32;;;;;;;;;;5031504;28;20045;-72
2022/03/09 11:34:39;;;;;;;10.13;6.53;;;;;;;;;;5041871;28;20055;-76
2022/03/09 11:37:12;;;;;;;10.70;6.68;;;;;;;;;;5051452;28;20064;-74
2022/03/09 11:39:39;;;;;;;10.88;6.63;;;;;;;;;;5050028;28;20108;-73
2022/03/09 11:42:41;;;;;;;12.10;6.80;;;;;;;;;;5051357;28;20090;-74
2022/03/09 11:45:22;;;;;;;10.98;6.47;;;;;;;;;;5032451;28;20041;-76
2022/03/09 11:48:01;;;;;;;9.18;6.10;;;;;;;;;;5070191;28;20489;-75
2022/03/09 11:50:29;;;;;;;10.70;6.60;;;;;;;;;;5074991;28;20548;-75
2022/03/09 11:53:09;;;;;;;10.60;6.35;;;;;;;;;;5054307;28;20291;-72
2022/03/09 11:55:36;;;;;;;12.43;6.45;;;;;;;;;;5054665;28;20071;-69
2022/03/09 11:58:04;;;;;;;10.93;6.57;;;;;;;;;;5054627;28;20521;-75
2022/03/09 12:00:29;;;;;;;10.98;6.40;;;;;;;;;;5053464;28;20033;-75
2022/03/09 12:02:56;;;;;;;9.15;6.53;;;;;;;;;;5054109;28;20204;-73
2022/03/09 12:05:24;;;;;;;9.93;6.75;;;;;;;;;;5055492;28;20171;-75
2022/03/09 12:07:51;;;;;;;12.40;6.88;;;;;;;;;;5054272;28;20037;-74
2022/03/09 12:10:17;;;;;;;11.18;6.45;;;;;;;;;;5054199;28;20491;-74
2022/03/09 12:13:10;;;;;;;9.93;6.43;;;;;;;;;;5053848;28;20052;-75
2022/03/09 12:16:23;;;;;;;8.68;5.93;;;;;;;;;;5052719;28;20377;-70
2022/03/09 12:19:09;;;;;;;9.77;6.65;;;;;;;;;;5052558;28;20485;-74
2022/03/09 12:21:40;;;;;;;11.15;6.18;;;;;;;;;;5054230;28;20045;-69
2022/03/09 12:24:05;;;;;;;9.63;6.80;;;;;;;;;;5054817;28;20056;-72
2022/03/09 12:26:48;;;;;;;12.75;6.38;;;;;;;;;;5053926;28;20040;-75
2022/03/09 12:29:26;;;;;;;10.43;6.95;;;;;;;;;;5053853;28;20067;-73
2022/03/09 12:32:07;;;;;;;10.23;6.47;;;;;;;;;;5053676;28;20045;-73
2022/03/09 12:34:37;;;;;;;10.15;6.50;;;;;;;;;;5054979;28;20028;-70
2022/03/09 12:37:05;;;;;;;9.40;6.50;;;;;;;;;;5054450;28;20063;-72
2022/03/09 12:39:31;;;;;;;10.57;7.10;;;;;;;;;;5053485;28;20029;-73
2022/03/09 12:41:58;;;;;;;10.25;6.60;;;;;;;;;;5053962;28;20503;-75
2022/03/09 12:44:26;;;;;;;11.55;6.82;;;;;;;;;;5053804;28;20041;-75
2022/03/09 12:46:53;;;;;;;11.15;6.70;;;;;;;;;;5053624;28;20096;-73
2022/03/09 12:49:22;;;;;;;9.70;6.30;;;;;;;;;;5054241;28;20029;-72
2022/03/09 12:51:53;;;;;;;11.15;6.75;;;;;;;;;;5053677;28;20041;-71
2022/03/09 12:54:34;;;;;;;;;;;;;;;;;;5054085;28;20036;-68
2022/03/09 12:57:08;;;;;;;10.80;6.53;;;;;;;;;;5051040;28;20370;-73
2022/03/09 12:59:33;;;;;;;11.05;6.70;;;;;;;;;;5051544;28;20056;-70
2022/03/09 13:01:59;;;;;;;8.88;6.40;;;;;;;;;;5052550;28;20471;-72
2022/03/09 13:04:25;;;;;;;9.82;6.75;;;;;;;;;;5053887;28;20033;-76
2022/03/09 13:06:50;;;;;;;11.85;6.80;;;;;;;;;;5053190;28;20087;-77
2022/03/09 13:09:32;;;;;;;9.23;6.78;;;;;;;;;;5054107;28;20431;-74
2022/03/09 13:11:58;;;;;;;10.57;6.35;;;;;;;;;;5052905;28;20032;-74
2022/03/09 13:14:25;;;;;;;13.00;6.55;;;;;;;;;;5053549;28;20043;-74
2022/03/09 13:17:20;;;;;;;9.50;6.65;;;;;;;;;;5053235;28;20083;-72
2022/03/09 13:19:46;;;;;;;9.50;6.63;;;;;;;;;;5042966;28;20502;-71
2022/03/09 13:22:11;;;;;;;10.27;6.68;;;;;;;;;;5053652;28;20025;-75
2022/03/09 13:24:39;;;;;;;10.35;6.82;;;;;;;;;;5051601;28;20410;-70
2022/03/09 13:27:16;;;;;;;10.18;6.50;;;;;;;;;;5052727;28;20463;-76
2022/03/09 13:29:43;;;;;;;9.40;6.18;;;;;;;;;;5051316;28;20057;-73
2022/03/09 13:32:09;;;;;;;9.27;6.35;;;;;;;;;;5053484;28;20033;-71
2022/03/09 13:34:39;;;;;;;10.45;6.45;;;;;;;;;;5052809;28;20060;-72
2022/03/09 13:37:18;;;;;;;10.90;6.88;;;;;;;;;;5053619;28;20033;-74
2022/03/09 13:39:48;;;;;;;9.25;6.57;;;;;;;;;;5051479;28;20056;-74
2022/03/09 13:42:21;;;;;;;12.35;6.10;;;;;;;;;;5053096;28;20067;-76
2022/03/09 13:45:05;;;;;;;12.43;6.50;;;;;;;;;;5050861;28;20037;-76
2022/03/09 13:47:31;;;;;;;9.52;6.35;;;;;;;;;;5052986;28;20039;-74
2022/03/09 13:49:56;;;;;;;8.88;6.28;;;;;;;;;;5052475;28;20619;-76
2022/03/09 13:52:31;;;;;;;11.65;6.90;;;;;;;;;;5052860;28;20037;-74
2022/03/09 13:55:02;;;;;;;9.55;6.82;;;;;;;;;;5052369;28;20029;-75
2022/03/09 13:57:30;;;;;;;11.98;7.07;;;;;;;;;;5052535;28;20112;-75
2022/03/09 13:59:56;;;;;;;9.70;6.90;;;;;;;;;;5052348;28;20466;-75
2022/03/09 14:02:23;;;;;;;8.95;6.65;;;;;;;;;;5052968;28;20060;-72
2022/03/09 14:05:49;;;;;;;;;;;;;;;;;;;;;
2022/03/09 14:08:40;;;;;;;11.90;6.93;;;;;;;;;;5001834;28;20048;-73
2022/03/09 14:11:16;;;;;;;12.00;6.78;;;;;;;;;;5008303;28;20091;-75
2022/03/09 14:14:07;;;;;;;10.73;6.70;;;;;;;;;;5003160;28;20515;-68
2022/03/09 14:16:43;;;;;;;10.88;6.40;;;;;;;;;;5000101;28;20057;-72
2022/03/09 14:19:12;;;;;;;10.25;6.60;;;;;;;;;;4991053;28;20050;-72
2022/03/09 14:21:58;;;;;;;8.52;6.18;;;;;;;;;;4991468;28;20035;-68
2022/03/09 14:24:24;;;;;;;9.57;6.57;;;;;;;;;;4997890;28;20053;-72
2022/03/09 14:26:51;;;;;;;8.65;6.43;;;;;;;;;;4991365;28;20038;-73
2022/03/09 14:29:18;;;;;;;9.27;6.85;;;;;;;;;;4994751;28;20408;-72
2022/03/09 14:31:45;;;;;;;8.55;6.28;;;;;;;;;;4996661;28;20050;-70
2022/03/09 14:34:10;;;;;;;10.50;6.28;;;;;;;;;;5007319;28;20030;-72
2022/03/09 14:36:36;;;;;;;8.75;6.18;;;;;;;;;;5010319;28;20128;-71
2022/03/09 14:39:03;;;;;;;9.57;6.20;;;;;;;;;;5026085;28;20155;-73
2022/03/09 14:41:29;;;;;;;9.38;6.25;;;;;;;;;;5051839;28;20040;-72